sensor_id;sensor_type;location;lat;lon;timestamp;pressure;altitude;pressure_sealevel;temperature;humidity
73073;BME280;61260;51.090;-1.786;2022-08-14T00:00:32;100288.42;;;19.71;44.20
73073;BME280;61260;51.090;-1.786;2022-08-14T00:03:00;100284.37;;;19.65;44.65
73073;BME280;61260;51.090;-1.786;2022-08-14T00:05:27;100280.38;;;19.62;44.73
73073;BME280;61260;51.090;-1.786;2022-08-14T00:07:55;100278.09;;;19.60;44.97
73073;BME280;61260;51.090;-1.786;2022-08-14T00:10:23;100275.68;;;19.56;44.99
73073;BME280;61260;51.090;-1.786;2022-08-14T00:12:53;100274.03;;;19.54;45.29
73073;BME280;61260;51.090;-1.786;2022-08-14T00:15:23;100271.60;;;19.51;45.48
73073;BME280;61260;51.090;-1.786;2022-08-14T00:17:52;100270.63;;;19.48;45.48
73073;BME280;61260;51.090;-1.786;2022-08-14T00:20:23;100268.08;;;19.41;45.59
73073;BME280;61260;51.090;-1.786;2022-08-14T00:22:51;100266.14;;;19.36;45.75
73073;BME280;61260;51.090;-1.786;2022-08-14T00:25:19;100266.91;;;19.30;45.91
73073;BME280;61260;51.090;-1.786;2022-08-14T00:27:47;100261.89;;;19.26;46.14
73073;BME280;61260;51.090;-1.786;2022-08-14T00:30:15;100260.66;;;19.22;46.33
73073;BME280;61260;51.090;-1.786;2022-08-14T00:32:42;100260.36;;;19.17;46.29
73073;BME280;61260;51.090;-1.786;2022-08-14T00:35:11;100259.63;;;19.09;46.60
73073;BME280;61260;51.090;-1.786;2022-08-14T00:37:39;100260.07;;;19.03;46.72
73073;BME280;61260;51.090;-1.786;2022-08-14T00:40:11;100259.80;;;18.96;46.83
73073;BME280;61260;51.090;-1.786;2022-08-14T00:42:39;100260.73;;;18.90;47.17
73073;BME280;61260;51.090;-1.786;2022-08-14T00:45:11;100256.18;;;18.85;47.21
73073;BME280;61260;51.090;-1.786;2022-08-14T00:47:38;100256.36;;;18.81;47.49
73073;BME280;61260;51.090;-1.786;2022-08-14T00:50:09;100250.73;;;18.75;47.72
73073;BME280;61260;51.090;-1.786;2022-08-14T00:52:38;100246.16;;;18.71;47.60
73073;BME280;61260;51.090;-1.786;2022-08-14T00:55:08;100241.77;;;18.68;47.47
73073;BME280;61260;51.090;-1.786;2022-08-14T00:57:36;100240.90;;;18.66;47.22
73073;BME280;61260;51.090;-1.786;2022-08-14T01:00:08;100240.85;;;18.62;47.32
73073;BME280;61260;51.090;-1.786;2022-08-14T01:02:38;100243.19;;;18.56;47.57
73073;BME280;61260;51.090;-1.786;2022-08-14T01:05:08;100241.88;;;18.51;47.82
73073;BME280;61260;51.090;-1.786;2022-08-14T01:07:51;100238.66;;;18.47;48.07
73073;BME280;61260;51.090;-1.786;2022-08-14T01:10:20;100235.98;;;18.43;48.39
73073;BME280;61260;51.090;-1.786;2022-08-14T01:12:48;100237.36;;;18.40;48.59
73073;BME280;61260;51.090;-1.786;2022-08-14T01:15:15;100235.64;;;18.37;48.84
73073;BME280;61260;51.090;-1.786;2022-08-14T01:17:47;100229.50;;;18.34;49.06
73073;BME280;61260;51.090;-1.786;2022-08-14T01:20:33;100224.38;;;18.29;48.95
73073;BME280;61260;51.090;-1.786;2022-08-14T01:23:19;100221.79;;;18.24;49.01
73073;BME280;61260;51.090;-1.786;2022-08-14T01:25:48;100218.35;;;18.18;48.99
73073;BME280;61260;51.090;-1.786;2022-08-14T01:28:16;100217.27;;;18.14;49.00
73073;BME280;61260;51.090;-1.786;2022-08-14T01:30:44;100212.05;;;18.11;49.18
73073;BME280;61260;51.090;-1.786;2022-08-14T01:33:11;100207.40;;;18.11;49.14
73073;BME280;61260;51.090;-1.786;2022-08-14T01:35:39;100204.64;;;18.11;49.20
73073;BME280;61260;51.090;-1.786;2022-08-14T01:38:10;100203.45;;;18.09;49.16
73073;BME280;61260;51.090;-1.786;2022-08-14T01:40:40;100200.79;;;18.07;49.24
73073;BME280;61260;51.090;-1.786;2022-08-14T01:43:10;100195.99;;;18.04;49.31
73073;BME280;61260;51.090;-1.786;2022-08-14T01:45:44;100195.30;;;18.01;50.15
73073;BME280;61260;51.090;-1.786;2022-08-14T01:48:12;100194.13;;;17.98;50.19
73073;BME280;61260;51.090;-1.786;2022-08-14T01:50:42;100186.39;;;17.94;50.24
73073;BME280;61260;51.090;-1.786;2022-08-14T01:53:10;100181.38;;;17.89;50.37
73073;BME280;61260;51.090;-1.786;2022-08-14T01:55:38;100178.80;;;17.85;50.44
73073;BME280;61260;51.090;-1.786;2022-08-14T01:58:06;100171.71;;;17.79;50.81
73073;BME280;61260;51.090;-1.786;2022-08-14T02:00:38;100169.29;;;17.75;50.92
73073;BME280;61260;51.090;-1.786;2022-08-14T02:03:06;100166.45;;;17.73;51.05
73073;BME280;61260;51.090;-1.786;2022-08-14T02:05:34;100165.69;;;17.69;50.93
73073;BME280;61260;51.090;-1.786;2022-08-14T02:08:02;100161.20;;;17.66;50.81
73073;BME280;61260;51.090;-1.786;2022-08-14T02:10:30;100157.89;;;17.65;50.54
73073;BME280;61260;51.090;-1.786;2022-08-14T02:13:02;100157.51;;;17.66;50.65
73073;BME280;61260;51.090;-1.786;2022-08-14T02:15:34;100157.33;;;17.67;50.59
73073;BME280;61260;51.090;-1.786;2022-08-14T02:18:01;100152.44;;;17.68;50.53
73073;BME280;61260;51.090;-1.786;2022-08-14T02:20:30;100154.02;;;17.67;50.45
73073;BME280;61260;51.090;-1.786;2022-08-14T02:22:59;100153.56;;;17.64;50.52
73073;BME280;61260;51.090;-1.786;2022-08-14T02:25:27;100155.54;;;17.61;50.89
73073;BME280;61260;51.090;-1.786;2022-08-14T02:27:56;100150.75;;;17.56;51.22
73073;BME280;61260;51.090;-1.786;2022-08-14T02:30:24;100149.34;;;17.52;51.41
73073;BME280;61260;51.090;-1.786;2022-08-14T02:32:53;100153.39;;;17.50;51.47
73073;BME280;61260;51.090;-1.786;2022-08-14T02:35:20;100152.05;;;17.46;51.55
73073;BME280;61260;51.090;-1.786;2022-08-14T02:37:51;100153.18;;;17.43;51.62
73073;BME280;61260;51.090;-1.786;2022-08-14T02:40:19;100155.30;;;17.40;51.70
73073;BME280;61260;51.090;-1.786;2022-08-14T02:42:48;100153.50;;;17.36;51.56
73073;BME280;61260;51.090;-1.786;2022-08-14T02:45:15;100156.19;;;17.33;51.33
73073;BME280;61260;51.090;-1.786;2022-08-14T02:47:43;100159.72;;;17.32;51.40
73073;BME280;61260;51.090;-1.786;2022-08-14T02:50:10;100154.27;;;17.32;51.64
73073;BME280;61260;51.090;-1.786;2022-08-14T02:52:38;100156.66;;;17.27;52.06
73073;BME280;61260;51.090;-1.786;2022-08-14T02:55:07;100156.73;;;17.22;52.24
73073;BME280;61260;51.090;-1.786;2022-08-14T02:57:35;100156.67;;;17.16;52.37
73073;BME280;61260;51.090;-1.786;2022-08-14T03:00:05;100158.13;;;17.11;52.35
73073;BME280;61260;51.090;-1.786;2022-08-14T03:02:33;100156.70;;;17.06;52.49
73073;BME280;61260;51.090;-1.786;2022-08-14T03:05:01;100158.28;;;17.00;52.89
73073;BME280;61260;51.090;-1.786;2022-08-14T03:07:28;100158.38;;;16.95;52.82
73073;BME280;61260;51.090;-1.786;2022-08-14T03:09:56;100156.65;;;16.94;52.71
73073;BME280;61260;51.090;-1.786;2022-08-14T03:12:24;100154.76;;;16.93;52.81
73073;BME280;61260;51.090;-1.786;2022-08-14T03:14:52;100154.60;;;16.94;52.80
73073;BME280;61260;51.090;-1.786;2022-08-14T03:17:19;100151.60;;;16.94;52.72
73073;BME280;61260;51.090;-1.786;2022-08-14T03:19:47;100153.97;;;16.94;52.74
73073;BME280;61260;51.090;-1.786;2022-08-14T03:22:15;100151.92;;;16.92;52.84
73073;BME280;61260;51.090;-1.786;2022-08-14T03:24:42;100153.89;;;16.89;53.02
73073;BME280;61260;51.090;-1.786;2022-08-14T03:27:10;100149.55;;;16.86;53.10
73073;BME280;61260;51.090;-1.786;2022-08-14T03:29:39;100148.14;;;16.84;53.17
73073;BME280;61260;51.090;-1.786;2022-08-14T03:32:07;100149.56;;;16.81;53.25
73073;BME280;61260;51.090;-1.786;2022-08-14T03:34:35;100144.69;;;16.78;53.42
73073;BME280;61260;51.090;-1.786;2022-08-14T03:37:04;100149.64;;;16.76;53.36
73073;BME280;61260;51.090;-1.786;2022-08-14T03:39:31;100148.08;;;16.74;53.27
73073;BME280;61260;51.090;-1.786;2022-08-14T03:41:59;100146.98;;;16.72;53.46
73073;BME280;61260;51.090;-1.786;2022-08-14T03:44:26;100148.77;;;16.70;53.60
73073;BME280;61260;51.090;-1.786;2022-08-14T03:46:54;100144.99;;;16.70;53.63
73073;BME280;61260;51.090;-1.786;2022-08-14T03:49:23;100139.23;;;16.71;53.59
73073;BME280;61260;51.090;-1.786;2022-08-14T03:51:50;100139.23;;;16.71;53.64
73073;BME280;61260;51.090;-1.786;2022-08-14T03:54:18;100140.81;;;16.72;53.57
73073;BME280;61260;51.090;-1.786;2022-08-14T03:56:46;100139.96;;;16.73;53.43
73073;BME280;61260;51.090;-1.786;2022-08-14T03:59:13;100137.36;;;16.76;53.39
73073;BME280;61260;51.090;-1.786;2022-08-14T04:01:41;100134.67;;;16.77;53.35
73073;BME280;61260;51.090;-1.786;2022-08-14T04:04:09;100138.38;;;16.76;53.27
73073;BME280;61260;51.090;-1.786;2022-08-14T04:06:39;100134.28;;;16.75;53.29
73073;BME280;61260;51.090;-1.786;2022-08-14T04:09:07;100134.13;;;16.72;53.39
73073;BME280;61260;51.090;-1.786;2022-08-14T04:11:37;100133.96;;;16.69;53.49
73073;BME280;61260;51.090;-1.786;2022-08-14T04:14:05;100131.85;;;16.67;53.61
73073;BME280;61260;51.090;-1.786;2022-08-14T04:16:33;100124.75;;;16.67;53.60
73073;BME280;61260;51.090;-1.786;2022-08-14T04:19:01;100119.70;;;16.70;53.59
73073;BME280;61260;51.090;-1.786;2022-08-14T04:21:30;100110.80;;;16.71;53.52
73073;BME280;61260;51.090;-1.786;2022-08-14T04:23:59;100102.60;;;16.72;53.44
73073;BME280;61260;51.090;-1.786;2022-08-14T04:26:28;100103.09;;;16.69;53.47
73073;BME280;61260;51.090;-1.786;2022-08-14T04:28:57;100108.30;;;16.66;53.59
73073;BME280;61260;51.090;-1.786;2022-08-14T04:31:25;100109.30;;;16.62;53.66
73073;BME280;61260;51.090;-1.786;2022-08-14T04:33:53;100104.60;;;16.59;53.78
73073;BME280;61260;51.090;-1.786;2022-08-14T04:36:21;100100.97;;;16.55;53.86
73073;BME280;61260;51.090;-1.786;2022-08-14T04:38:48;100098.21;;;16.52;54.09
73073;BME280;61260;51.090;-1.786;2022-08-14T04:41:35;100091.53;;;16.49;54.30
73073;BME280;61260;51.090;-1.786;2022-08-14T04:44:21;100090.59;;;16.44;54.46
73073;BME280;61260;51.090;-1.786;2022-08-14T04:46:48;100084.13;;;16.39;54.64
73073;BME280;61260;51.090;-1.786;2022-08-14T04:49:31;100089.55;;;16.36;54.76
73073;BME280;61260;51.090;-1.786;2022-08-14T04:51:59;100089.38;;;16.33;54.87
73073;BME280;61260;51.090;-1.786;2022-08-14T04:54:26;100087.56;;;16.32;55.02
73073;BME280;61260;51.090;-1.786;2022-08-14T04:56:54;100083.47;;;16.31;55.02
73073;BME280;61260;51.090;-1.786;2022-08-14T04:59:24;100080.73;;;16.30;54.96
73073;BME280;61260;51.090;-1.786;2022-08-14T05:01:52;100082.21;;;16.29;55.16
73073;BME280;61260;51.090;-1.786;2022-08-14T05:04:20;100081.90;;;16.28;55.19
73073;BME280;61260;51.090;-1.786;2022-08-14T05:06:49;100083.08;;;16.29;55.22
73073;BME280;61260;51.090;-1.786;2022-08-14T05:09:17;100081.98;;;16.31;55.54
73073;BME280;61260;51.090;-1.786;2022-08-14T05:11:45;100083.17;;;16.36;55.56
73073;BME280;61260;51.090;-1.786;2022-08-14T05:14:14;100084.21;;;16.39;55.58
73073;BME280;61260;51.090;-1.786;2022-08-14T05:16:44;100082.08;;;16.43;55.77
73073;BME280;61260;51.090;-1.786;2022-08-14T05:19:12;100082.31;;;16.49;55.87
73073;BME280;61260;51.090;-1.786;2022-08-14T05:21:40;100082.63;;;16.56;55.81
73073;BME280;61260;51.090;-1.786;2022-08-14T05:24:08;100079.23;;;16.61;55.78
73073;BME280;61260;51.090;-1.786;2022-08-14T05:26:38;100078.44;;;16.66;55.63
73073;BME280;61260;51.090;-1.786;2022-08-14T05:29:10;100077.15;;;16.71;55.71
73073;BME280;61260;51.090;-1.786;2022-08-14T05:31:38;100073.52;;;16.78;55.53
73073;BME280;61260;51.090;-1.786;2022-08-14T05:34:06;100076.34;;;16.85;55.49
73073;BME280;61260;51.090;-1.786;2022-08-14T05:36:34;100073.41;;;16.92;55.35
73073;BME280;61260;51.090;-1.786;2022-08-14T05:39:02;100073.23;;;17.00;55.24
73073;BME280;61260;51.090;-1.786;2022-08-14T05:41:30;100068.64;;;17.06;55.15
73073;BME280;61260;51.090;-1.786;2022-08-14T05:43:59;100070.05;;;17.12;55.02
73073;BME280;61260;51.090;-1.786;2022-08-14T05:46:26;100070.02;;;17.19;54.91
73073;BME280;61260;51.090;-1.786;2022-08-14T05:48:56;100065.65;;;17.25;54.86
73073;BME280;61260;51.090;-1.786;2022-08-14T05:51:25;100065.00;;;17.32;54.92
73073;BME280;61260;51.090;-1.786;2022-08-14T05:53:54;100065.69;;;17.41;55.06
73073;BME280;61260;51.090;-1.786;2022-08-14T05:56:23;100069.44;;;17.51;54.90
73073;BME280;61260;51.090;-1.786;2022-08-14T05:58:52;100073.00;;;17.63;54.98
73073;BME280;61260;51.090;-1.786;2022-08-14T06:01:20;100074.43;;;17.75;54.70
73073;BME280;61260;51.090;-1.786;2022-08-14T06:03:47;100072.77;;;17.87;54.40
73073;BME280;61260;51.090;-1.786;2022-08-14T06:06:16;100072.45;;;17.99;54.20
73073;BME280;61260;51.090;-1.786;2022-08-14T06:08:44;100074.34;;;18.11;54.04
73073;BME280;61260;51.090;-1.786;2022-08-14T06:11:11;100075.92;;;18.25;53.73
73073;BME280;61260;51.090;-1.786;2022-08-14T06:13:41;100079.55;;;18.38;53.48
73073;BME280;61260;51.090;-1.786;2022-08-14T06:16:09;100078.88;;;18.51;53.33
73073;BME280;61260;51.090;-1.786;2022-08-14T06:18:37;100083.07;;;18.67;53.36
73073;BME280;61260;51.090;-1.786;2022-08-14T06:21:06;100084.02;;;18.84;53.09
73073;BME280;61260;51.090;-1.786;2022-08-14T06:23:34;100086.04;;;19.01;53.08
73073;BME280;61260;51.090;-1.786;2022-08-14T06:26:01;100089.20;;;19.30;52.63
73073;BME280;61260;51.090;-1.786;2022-08-14T06:28:29;100087.56;;;20.05;51.60
73073;BME280;61260;51.090;-1.786;2022-08-14T06:30:56;100082.79;;;21.00;49.77
73073;BME280;61260;51.090;-1.786;2022-08-14T06:33:24;100085.82;;;21.98;47.50
73073;BME280;61260;51.090;-1.786;2022-08-14T06:35:51;100089.64;;;22.83;45.65
73073;BME280;61260;51.090;-1.786;2022-08-14T06:38:21;100086.15;;;23.54;44.33
73073;BME280;61260;51.090;-1.786;2022-08-14T06:40:50;100090.48;;;24.13;42.93
73073;BME280;61260;51.090;-1.786;2022-08-14T06:43:19;100089.63;;;24.52;41.01
73073;BME280;61260;51.090;-1.786;2022-08-14T06:45:47;100088.56;;;24.55;41.22
73073;BME280;61260;51.090;-1.786;2022-08-14T06:48:16;100087.78;;;24.53;40.32
73073;BME280;61260;51.090;-1.786;2022-08-14T06:50:45;100084.49;;;24.38;40.60
73073;BME280;61260;51.090;-1.786;2022-08-14T06:53:13;100086.67;;;24.31;41.43
73073;BME280;61260;51.090;-1.786;2022-08-14T06:55:42;100083.12;;;24.22;41.12
73073;BME280;61260;51.090;-1.786;2022-08-14T06:58:12;100078.04;;;24.09;41.36
73073;BME280;61260;51.090;-1.786;2022-08-14T07:00:40;100073.33;;;24.04;41.67
73073;BME280;61260;51.090;-1.786;2022-08-14T07:03:29;100071.05;;;24.03;41.97
73073;BME280;61260;51.090;-1.786;2022-08-14T07:06:15;100071.52;;;24.04;41.94
73073;BME280;61260;51.090;-1.786;2022-08-14T07:08:43;100068.83;;;23.98;42.10
73073;BME280;61260;51.090;-1.786;2022-08-14T07:11:12;100065.73;;;24.00;42.22
73073;BME280;61260;51.090;-1.786;2022-08-14T07:13:40;100064.50;;;24.06;42.12
73073;BME280;61260;51.090;-1.786;2022-08-14T07:16:08;100066.83;;;24.13;41.97
73073;BME280;61260;51.090;-1.786;2022-08-14T07:18:39;100064.80;;;24.17;41.60
73073;BME280;61260;51.090;-1.786;2022-08-14T07:21:08;100062.52;;;24.21;41.64
73073;BME280;61260;51.090;-1.786;2022-08-14T07:23:36;100060.91;;;24.24;41.20
73073;BME280;61260;51.090;-1.786;2022-08-14T07:26:05;100060.34;;;24.26;41.25
73073;BME280;61260;51.090;-1.786;2022-08-14T07:28:34;100057.44;;;24.36;41.13
73073;BME280;61260;51.090;-1.786;2022-08-14T07:31:03;100057.02;;;24.54;41.11
73073;BME280;61260;51.090;-1.786;2022-08-14T07:33:33;100050.94;;;24.84;40.31
73073;BME280;61260;51.090;-1.786;2022-08-14T07:36:04;100046.96;;;25.17;39.59
73073;BME280;61260;51.090;-1.786;2022-08-14T07:38:32;100044.54;;;25.62;39.21
73073;BME280;61260;51.090;-1.786;2022-08-14T07:40:59;100044.31;;;26.01;38.21
73073;BME280;61260;51.090;-1.786;2022-08-14T07:43:27;100045.38;;;26.41;37.72
73073;BME280;61260;51.090;-1.786;2022-08-14T07:45:55;100047.00;;;26.81;36.66
73073;BME280;61260;51.090;-1.786;2022-08-14T07:48:23;100043.83;;;27.37;36.47
73073;BME280;61260;51.090;-1.786;2022-08-14T07:50:50;100041.44;;;28.01;35.28
73073;BME280;61260;51.090;-1.786;2022-08-14T07:53:18;100038.01;;;28.66;34.34
73073;BME280;61260;51.090;-1.786;2022-08-14T07:55:47;100034.73;;;29.16;32.53
73073;BME280;61260;51.090;-1.786;2022-08-14T07:58:16;100039.15;;;29.54;31.97
73073;BME280;61260;51.090;-1.786;2022-08-14T08:00:44;100032.09;;;30.00;31.43
73073;BME280;61260;51.090;-1.786;2022-08-14T08:03:12;100031.18;;;30.47;30.94
73073;BME280;61260;51.090;-1.786;2022-08-14T08:05:40;100028.70;;;30.93;29.54
73073;BME280;61260;51.090;-1.786;2022-08-14T08:08:08;100026.94;;;31.13;28.46
73073;BME280;61260;51.090;-1.786;2022-08-14T08:10:37;100020.84;;;31.38;28.58
73073;BME280;61260;51.090;-1.786;2022-08-14T08:13:10;100017.77;;;31.76;27.68
73073;BME280;61260;51.090;-1.786;2022-08-14T08:15:40;100016.58;;;32.01;27.40
73073;BME280;61260;51.090;-1.786;2022-08-14T08:18:09;100015.06;;;32.25;27.48
73073;BME280;61260;51.090;-1.786;2022-08-14T08:20:39;100010.65;;;32.64;27.14
73073;BME280;61260;51.090;-1.786;2022-08-14T08:23:07;100009.66;;;33.18;26.41
73073;BME280;61260;51.090;-1.786;2022-08-14T08:25:37;100002.20;;;33.45;25.05
73073;BME280;61260;51.090;-1.786;2022-08-14T08:28:07;99993.68;;;33.75;24.69
73073;BME280;61260;51.090;-1.786;2022-08-14T08:30:37;99990.36;;;34.02;24.64
73073;BME280;61260;51.090;-1.786;2022-08-14T08:33:06;99985.34;;;34.20;24.07
73073;BME280;61260;51.090;-1.786;2022-08-14T08:35:35;99982.38;;;34.29;23.61
73073;BME280;61260;51.090;-1.786;2022-08-14T08:38:07;99980.23;;;34.43;23.88
73073;BME280;61260;51.090;-1.786;2022-08-14T08:40:39;99979.59;;;34.76;23.60
73073;BME280;61260;51.090;-1.786;2022-08-14T08:43:15;99977.52;;;34.98;22.78
73073;BME280;61260;51.090;-1.786;2022-08-14T08:45:43;99976.68;;;35.26;22.75
73073;BME280;61260;51.090;-1.786;2022-08-14T08:48:17;99977.80;;;35.62;22.69
73073;BME280;61260;51.090;-1.786;2022-08-14T08:50:44;99975.31;;;36.19;22.42
73073;BME280;61260;51.090;-1.786;2022-08-14T08:53:12;99982.75;;;36.52;20.81
73073;BME280;61260;51.090;-1.786;2022-08-14T08:55:41;99979.82;;;36.87;20.52
73073;BME280;61260;51.090;-1.786;2022-08-14T08:58:10;99983.98;;;37.12;20.40
73073;BME280;61260;51.090;-1.786;2022-08-14T09:00:40;99981.81;;;37.55;20.03
73073;BME280;61260;51.090;-1.786;2022-08-14T09:03:10;99977.91;;;37.90;19.57
73073;BME280;61260;51.090;-1.786;2022-08-14T09:05:48;99974.58;;;38.19;18.91
73073;BME280;61260;51.090;-1.786;2022-08-14T09:08:18;99972.83;;;38.46;18.96
73073;BME280;61260;51.090;-1.786;2022-08-14T09:10:46;99973.67;;;38.77;18.63
73073;BME280;61260;51.090;-1.786;2022-08-14T09:13:14;99970.95;;;39.11;17.96
73073;BME280;61260;51.090;-1.786;2022-08-14T09:15:44;99962.68;;;39.40;17.45
73073;BME280;61260;51.090;-1.786;2022-08-14T09:18:13;99960.75;;;39.55;17.09
73073;BME280;61260;51.090;-1.786;2022-08-14T09:20:42;99963.83;;;39.44;17.14
73073;BME280;61260;51.090;-1.786;2022-08-14T09:23:12;99961.69;;;39.57;17.10
73073;BME280;61260;51.090;-1.786;2022-08-14T09:25:42;99960.30;;;39.65;16.66
73073;BME280;61260;51.090;-1.786;2022-08-14T09:28:10;99960.20;;;40.03;16.78
73073;BME280;61260;51.090;-1.786;2022-08-14T09:30:41;99956.89;;;40.30;16.15
73073;BME280;61260;51.090;-1.786;2022-08-14T09:33:28;99955.33;;;40.57;15.86
73073;BME280;61260;51.090;-1.786;2022-08-14T09:36:10;99962.12;;;40.94;14.90
73073;BME280;61260;51.090;-1.786;2022-08-14T09:38:46;99957.25;;;41.28;14.92
73073;BME280;61260;51.090;-1.786;2022-08-14T09:41:29;99954.09;;;41.56;14.45
73073;BME280;61260;51.090;-1.786;2022-08-14T09:44:06;99955.01;;;41.50;15.15
73073;BME280;61260;51.090;-1.786;2022-08-14T09:46:35;99944.22;;;41.75;14.69
73073;BME280;61260;51.090;-1.786;2022-08-14T09:49:05;99947.37;;;41.38;13.87
73073;BME280;61260;51.090;-1.786;2022-08-14T09:51:35;99946.77;;;41.05;14.02
73073;BME280;61260;51.090;-1.786;2022-08-14T09:54:09;99951.97;;;40.80;14.16
73073;BME280;61260;51.090;-1.786;2022-08-14T09:56:45;99946.48;;;40.94;14.49
73073;BME280;61260;51.090;-1.786;2022-08-14T09:59:16;99945.52;;;41.29;14.18
73073;BME280;61260;51.090;-1.786;2022-08-14T10:01:49;99941.08;;;41.50;14.26
73073;BME280;61260;51.090;-1.786;2022-08-14T10:04:21;99938.52;;;41.89;14.01
73073;BME280;61260;51.090;-1.786;2022-08-14T10:06:50;99939.11;;;42.37;12.99
73073;BME280;61260;51.090;-1.786;2022-08-14T10:09:18;99938.05;;;42.23;13.44
73073;BME280;61260;51.090;-1.786;2022-08-14T10:11:55;99932.63;;;42.35;13.64
73073;BME280;61260;51.090;-1.786;2022-08-14T10:14:27;99925.39;;;42.60;12.78
73073;BME280;61260;51.090;-1.786;2022-08-14T10:16:57;99922.77;;;42.74;11.93
73073;BME280;61260;51.090;-1.786;2022-08-14T10:19:27;99926.36;;;42.84;11.40
73073;BME280;61260;51.090;-1.786;2022-08-14T10:21:59;99922.34;;;42.65;10.88
73073;BME280;61260;51.090;-1.786;2022-08-14T10:24:29;99920.42;;;42.66;11.35
73073;BME280;61260;51.090;-1.786;2022-08-14T10:26:59;99917.13;;;42.91;10.82
73073;BME280;61260;51.090;-1.786;2022-08-14T10:29:32;99911.96;;;42.90;10.40
73073;BME280;61260;51.090;-1.786;2022-08-14T10:32:00;99913.88;;;42.84;10.83
73073;BME280;61260;51.090;-1.786;2022-08-14T10:34:33;99915.55;;;43.20;11.00
73073;BME280;61260;51.090;-1.786;2022-08-14T10:37:05;99910.49;;;43.38;10.62
73073;BME280;61260;51.090;-1.786;2022-08-14T10:39:34;99907.98;;;43.70;10.66
73073;BME280;61260;51.090;-1.786;2022-08-14T10:42:05;99907.30;;;43.68;10.35
73073;BME280;61260;51.090;-1.786;2022-08-14T10:44:34;99905.89;;;43.19;10.53
73073;BME280;61260;51.090;-1.786;2022-08-14T10:47:05;99901.20;;;42.83;11.02
73073;BME280;61260;51.090;-1.786;2022-08-14T10:49:37;99902.32;;;42.91;11.16
73073;BME280;61260;51.090;-1.786;2022-08-14T10:52:07;99900.44;;;42.98;10.51
73073;BME280;61260;51.090;-1.786;2022-08-14T10:54:38;99897.86;;;42.58;10.03
73073;BME280;61260;51.090;-1.786;2022-08-14T10:57:18;99901.67;;;42.06;10.32
73073;BME280;61260;51.090;-1.786;2022-08-14T10:59:49;99896.89;;;42.12;10.71
73073;BME280;61260;51.090;-1.786;2022-08-14T11:02:22;99894.31;;;42.41;11.06
73073;BME280;61260;51.090;-1.786;2022-08-14T11:05:05;99884.88;;;42.81;10.65
73073;BME280;61260;51.090;-1.786;2022-08-14T11:07:32;99887.43;;;43.06;10.52
73073;BME280;61260;51.090;-1.786;2022-08-14T11:10:03;99877.31;;;43.29;10.57
73073;BME280;61260;51.090;-1.786;2022-08-14T11:12:44;99875.02;;;43.04;10.19
73073;BME280;61260;51.090;-1.786;2022-08-14T11:15:17;99867.95;;;42.31;10.16
73073;BME280;61260;51.090;-1.786;2022-08-14T11:17:45;99868.59;;;41.81;10.79
73073;BME280;61260;51.090;-1.786;2022-08-14T11:20:14;99867.48;;;41.36;10.86
73073;BME280;61260;51.090;-1.786;2022-08-14T11:22:43;99867.36;;;40.96;11.45
73073;BME280;61260;51.090;-1.786;2022-08-14T11:25:12;99861.77;;;40.71;11.53
73073;BME280;61260;51.090;-1.786;2022-08-14T11:27:42;99862.03;;;40.46;11.48
73073;BME280;61260;51.090;-1.786;2022-08-14T11:30:12;99856.73;;;40.43;11.35
73073;BME280;61260;51.090;-1.786;2022-08-14T11:32:42;99852.81;;;40.37;11.73
73073;BME280;61260;51.090;-1.786;2022-08-14T11:35:12;99850.02;;;40.28;11.77
73073;BME280;61260;51.090;-1.786;2022-08-14T11:37:50;99851.71;;;40.29;11.94
73073;BME280;61260;51.090;-1.786;2022-08-14T11:40:19;99856.13;;;40.34;11.65
73073;BME280;61260;51.090;-1.786;2022-08-14T11:42:50;99847.34;;;40.55;11.91
73073;BME280;61260;51.090;-1.786;2022-08-14T11:45:22;99847.70;;;40.86;11.61
73073;BME280;61260;51.090;-1.786;2022-08-14T11:47:51;99844.98;;;40.93;11.12
73073;BME280;61260;51.090;-1.786;2022-08-14T11:50:23;99843.02;;;40.74;11.37
73073;BME280;61260;51.090;-1.786;2022-08-14T11:52:51;99841.54;;;40.23;11.12
73073;BME280;61260;51.090;-1.786;2022-08-14T11:55:24;99838.89;;;39.88;11.73
73073;BME280;61260;51.090;-1.786;2022-08-14T11:58:01;99843.34;;;39.76;12.00
73073;BME280;61260;51.090;-1.786;2022-08-14T12:00:29;99845.64;;;39.37;11.99
73073;BME280;61260;51.090;-1.786;2022-08-14T12:02:58;99847.27;;;39.28;12.26
73073;BME280;61260;51.090;-1.786;2022-08-14T12:05:31;99842.89;;;39.10;12.25
73073;BME280;61260;51.090;-1.786;2022-08-14T12:08:00;99843.73;;;39.01;12.31
73073;BME280;61260;51.090;-1.786;2022-08-14T12:10:29;99841.28;;;39.08;12.15
73073;BME280;61260;51.090;-1.786;2022-08-14T12:12:57;99836.15;;;39.30;12.34
73073;BME280;61260;51.090;-1.786;2022-08-14T12:15:33;99826.25;;;39.53;11.95
73073;BME280;61260;51.090;-1.786;2022-08-14T12:18:01;99828.27;;;39.43;12.52
73073;BME280;61260;51.090;-1.786;2022-08-14T12:20:31;99829.68;;;39.09;12.24
73073;BME280;61260;51.090;-1.786;2022-08-14T12:22:59;99826.77;;;38.65;12.66
73073;BME280;61260;51.090;-1.786;2022-08-14T12:25:27;99822.13;;;38.16;13.24
73073;BME280;61260;51.090;-1.786;2022-08-14T12:27:56;99817.47;;;37.74;13.78
73073;BME280;61260;51.090;-1.786;2022-08-14T12:30:30;99817.46;;;37.38;14.02
73073;BME280;61260;51.090;-1.786;2022-08-14T12:33:00;99817.23;;;37.17;14.06
73073;BME280;61260;51.090;-1.786;2022-08-14T12:35:39;99814.36;;;36.93;14.70
73073;BME280;61260;51.090;-1.786;2022-08-14T12:38:09;99814.02;;;36.63;14.54
73073;BME280;61260;51.090;-1.786;2022-08-14T12:40:46;99812.70;;;36.31;14.87
73073;BME280;61260;51.090;-1.786;2022-08-14T12:43:15;99809.44;;;36.00;15.34
73073;BME280;61260;51.090;-1.786;2022-08-14T12:45:47;99809.84;;;35.92;14.77
73073;BME280;61260;51.090;-1.786;2022-08-14T12:48:16;99803.87;;;35.94;14.65
73073;BME280;61260;51.090;-1.786;2022-08-14T12:50:45;99804.88;;;36.12;14.36
73073;BME280;61260;51.090;-1.786;2022-08-14T12:53:13;99802.20;;;36.49;14.41
73073;BME280;61260;51.090;-1.786;2022-08-14T12:55:42;99795.92;;;36.77;14.13